createdAt,value
2019-01-09T00:00:36.198Z,935.25
2019-01-09T00:01:36.197Z,935.26
2019-01-09T00:02:36.178Z,935.23
2019-01-09T00:03:36.170Z,935.30
2019-01-09T00:04:36.174Z,935.20
2019-01-09T00:05:36.142Z,935.22
2019-01-09T00:06:36.135Z,935.22
2019-01-09T00:07:36.122Z,935.21
2019-01-09T00:08:36.113Z,935.15
2019-01-09T00:09:36.092Z,935.19
2019-01-09T00:10:36.090Z,935.15
2019-01-09T00:11:36.107Z,935.19
2019-01-09T00:12:36.064Z,935.12
2019-01-09T00:13:36.048Z,935.24
2019-01-09T00:14:36.039Z,935.24
2019-01-09T00:15:36.035Z,935.25
2019-01-09T00:16:36.033Z,935.25
2019-01-09T00:17:36.028Z,935.17
2019-01-09T00:18:36.003Z,935.25
2019-01-09T00:19:35.987Z,935.27
2019-01-09T00:20:35.969Z,935.35
2019-01-09T00:21:35.970Z,935.30
2019-01-09T00:22:35.958Z,935.23
2019-01-09T00:23:35.948Z,935.27
2019-01-09T00:24:35.930Z,935.22
2019-01-09T00:25:35.920Z,935.16
2019-01-09T00:26:35.905Z,935.16
2019-01-09T00:27:35.896Z,935.12
2019-01-09T00:28:35.910Z,935.25
2019-01-09T00:29:35.869Z,935.17
2019-01-09T00:30:35.864Z,935.11
2019-01-09T00:31:35.849Z,935.22
2019-01-09T00:32:35.845Z,935.24
2019-01-09T00:33:35.832Z,935.21
2019-01-09T00:34:35.841Z,935.19
2019-01-09T00:35:37.494Z,935.26
2019-01-09T00:36:35.789Z,935.22
2019-01-09T00:37:35.780Z,935.20
2019-01-09T00:38:35.772Z,935.18
2019-01-09T00:39:35.766Z,935.17
2019-01-09T00:40:35.760Z,935.21
2019-01-09T00:41:35.744Z,935.27
2019-01-09T00:42:35.727Z,935.29
2019-01-09T00:43:35.718Z,935.21
2019-01-09T00:44:35.720Z,935.18
2019-01-09T00:45:35.734Z,935.26
2019-01-09T00:46:35.682Z,935.25
2019-01-09T00:47:35.677Z,935.24
2019-01-09T00:48:35.662Z,935.32
2019-01-09T00:49:35.653Z,935.34
2019-01-09T00:50:35.648Z,935.28
2019-01-09T00:51:35.648Z,935.39
2019-01-09T00:52:35.638Z,935.26
2019-01-09T00:53:35.618Z,935.29
2019-01-09T00:54:35.592Z,935.28
2019-01-09T00:55:35.584Z,935.46
2019-01-09T00:56:35.598Z,935.32
2019-01-09T00:57:35.571Z,935.41
2019-01-09T00:58:35.548Z,935.33
2019-01-09T00:59:35.544Z,935.41
2019-01-09T01:00:35.545Z,935.36
2019-01-09T01:01:35.518Z,935.51
2019-01-09T01:02:35.514Z,935.53
2019-01-09T01:03:35.489Z,935.57
2019-01-09T01:04:35.488Z,935.52
2019-01-09T01:05:35.489Z,935.58
2019-01-09T01:06:35.492Z,935.60
2019-01-09T01:07:35.473Z,935.61
2019-01-09T01:08:35.438Z,935.57
2019-01-09T01:09:35.432Z,935.68
2019-01-09T01:10:35.415Z,935.59
2019-01-09T01:11:35.408Z,935.51
2019-01-09T01:12:35.400Z,935.65
2019-01-09T01:13:35.390Z,935.61
2019-01-09T01:14:35.372Z,935.67
2019-01-09T01:15:35.364Z,935.68
2019-01-09T01:16:35.354Z,935.80
2019-01-09T01:17:35.338Z,935.62
2019-01-09T01:18:35.353Z,935.65
2019-01-09T01:19:35.319Z,935.65
2019-01-09T01:20:35.313Z,935.58
2019-01-09T01:21:35.300Z,935.64
2019-01-09T01:22:35.289Z,935.62
2019-01-09T01:23:35.281Z,935.60
2019-01-09T01:24:35.265Z,935.60
2019-01-09T01:25:35.253Z,935.72
2019-01-09T01:26:35.237Z,935.63
2019-01-09T01:27:35.224Z,935.59
2019-01-09T01:28:35.240Z,935.63
2019-01-09T01:29:35.203Z,935.71
2019-01-09T01:30:35.193Z,935.61
2019-01-09T01:31:35.199Z,935.76
2019-01-09T01:32:35.174Z,935.65
2019-01-09T01:33:35.163Z,935.72
2019-01-09T01:34:35.160Z,935.64
2019-01-09T01:35:35.139Z,935.68
2019-01-09T01:36:35.134Z,935.65
2019-01-09T01:37:35.140Z,935.66
2019-01-09T01:38:35.115Z,935.72
2019-01-09T01:39:35.119Z,935.70
2019-01-09T01:40:35.079Z,935.63
2019-01-09T01:41:35.065Z,935.67
2019-01-09T01:42:35.775Z,935.69
2019-01-09T01:43:35.047Z,935.76
2019-01-09T01:44:35.055Z,935.70
2019-01-09T01:45:35.063Z,935.75
2019-01-09T01:46:35.014Z,935.55
2019-01-09T01:47:35.003Z,935.67
2019-01-09T01:48:34.995Z,935.75
2019-01-09T01:49:34.983Z,935.82
2019-01-09T01:50:34.974Z,935.70
2019-01-09T01:51:34.981Z,935.73
2019-01-09T01:52:34.940Z,935.81
2019-01-09T01:53:35.031Z,935.71
2019-01-09T01:54:34.931Z,935.69
2019-01-09T01:55:34.912Z,935.73
2019-01-09T01:56:34.953Z,935.70
2019-01-09T01:57:34.886Z,935.71
2019-01-09T01:58:34.878Z,935.77
2019-01-09T01:59:34.875Z,935.79
2019-01-09T02:00:34.856Z,935.81
2019-01-09T02:01:34.845Z,935.69
2019-01-09T02:02:34.915Z,935.81
2019-01-09T02:03:34.843Z,935.74
2019-01-09T02:04:34.809Z,935.80
2019-01-09T02:05:34.804Z,935.75
2019-01-09T02:06:34.793Z,935.72
2019-01-09T02:07:34.803Z,935.77
2019-01-09T02:08:34.768Z,935.76
2019-01-09T02:09:34.773Z,935.70
2019-01-09T02:10:34.744Z,935.82
2019-01-09T02:11:34.751Z,935.79
2019-01-09T02:12:34.724Z,935.81
2019-01-09T02:13:34.718Z,935.72
2019-01-09T02:14:34.701Z,935.77
2019-01-09T02:15:34.694Z,935.74
2019-01-09T02:16:34.679Z,935.75
2019-01-09T02:17:34.667Z,935.69
2019-01-09T02:18:34.675Z,935.65
2019-01-09T02:19:34.643Z,935.75
2019-01-09T02:20:34.628Z,935.81
2019-01-09T02:21:34.621Z,935.74
2019-01-09T02:22:34.634Z,935.75
2019-01-09T02:23:34.636Z,935.76
2019-01-09T02:24:34.587Z,935.81
2019-01-09T02:25:34.582Z,935.86
2019-01-09T02:26:34.574Z,935.75
2019-01-09T02:27:34.559Z,935.71
2019-01-09T02:28:34.544Z,935.81
2019-01-09T02:29:34.549Z,935.80
2019-01-09T02:30:34.527Z,935.76
2019-01-09T02:31:34.517Z,935.79
2019-01-09T02:32:34.502Z,935.72
2019-01-09T02:33:34.486Z,935.93
2019-01-09T02:34:34.494Z,935.74
2019-01-09T02:35:34.470Z,935.69
2019-01-09T02:36:34.458Z,935.76
2019-01-09T02:37:34.455Z,935.75
2019-01-09T02:38:34.432Z,935.65
2019-01-09T02:39:34.454Z,935.74
2019-01-09T02:40:34.412Z,935.77
2019-01-09T02:41:34.407Z,935.72
2019-01-09T02:42:34.399Z,935.74
2019-01-09T02:43:34.392Z,935.85
2019-01-09T02:44:34.369Z,935.91
2019-01-09T02:45:34.376Z,935.85
2019-01-09T02:46:34.345Z,935.82
2019-01-09T02:47:34.341Z,935.76
2019-01-09T02:48:34.319Z,935.85
2019-01-09T02:49:34.318Z,935.75
2019-01-09T02:50:34.311Z,935.85
2019-01-09T02:51:34.309Z,935.83
2019-01-09T02:52:34.287Z,935.72
2019-01-09T02:53:34.266Z,935.83
2019-01-09T02:54:34.258Z,935.78
2019-01-09T02:55:34.246Z,935.79
2019-01-09T02:56:34.261Z,935.72
2019-01-09T02:57:34.239Z,935.73
2019-01-09T02:58:34.221Z,935.73
2019-01-09T02:59:34.219Z,935.73
2019-01-09T03:00:34.195Z,935.75
2019-01-09T03:01:34.185Z,935.76
2019-01-09T03:02:34.190Z,935.81
2019-01-09T03:03:34.156Z,935.75
2019-01-09T03:04:34.155Z,935.83
2019-01-09T03:05:34.156Z,935.87
2019-01-09T03:06:34.130Z,935.73
2019-01-09T03:07:34.141Z,935.81
2019-01-09T03:08:34.103Z,935.85
2019-01-09T03:09:34.092Z,935.89
2019-01-09T03:10:34.087Z,935.77
2019-01-09T03:11:34.070Z,935.82
2019-01-09T03:12:34.050Z,935.85
2019-01-09T03:13:34.085Z,935.79
2019-01-09T03:14:34.035Z,935.81
2019-01-09T03:15:34.015Z,935.81
2019-01-09T03:16:34.017Z,935.82
2019-01-09T03:17:34.016Z,935.81
2019-01-09T03:18:33.990Z,935.88
2019-01-09T03:19:33.988Z,935.89
2019-01-09T03:20:33.975Z,935.90
2019-01-09T03:21:33.960Z,935.81
2019-01-09T03:22:33.953Z,935.91
2019-01-09T03:23:33.939Z,936.01
2019-01-09T03:24:33.948Z,935.75
2019-01-09T03:25:33.921Z,935.81
2019-01-09T03:26:33.906Z,935.85
2019-01-09T03:27:33.904Z,935.85
2019-01-09T03:28:33.876Z,935.85
2019-01-09T03:29:33.893Z,935.93
2019-01-09T03:30:33.873Z,935.95
2019-01-09T03:31:33.859Z,935.90
2019-01-09T03:32:33.885Z,935.81
2019-01-09T03:33:33.823Z,935.75
2019-01-09T03:34:33.814Z,935.83
2019-01-09T03:35:33.830Z,935.91
2019-01-09T03:36:33.802Z,935.90
2019-01-09T03:37:33.785Z,935.88
2019-01-09T03:38:33.786Z,935.80
2019-01-09T03:39:33.762Z,935.86
2019-01-09T03:40:33.746Z,935.84
2019-01-09T03:41:33.767Z,935.83
2019-01-09T03:42:33.880Z,935.93
2019-01-09T03:43:33.722Z,935.80
2019-01-09T03:44:33.711Z,935.88
2019-01-09T03:45:33.695Z,935.85
2019-01-09T03:46:33.716Z,935.81
2019-01-09T03:47:33.670Z,935.81
2019-01-09T03:48:33.658Z,935.87
2019-01-09T03:49:33.649Z,935.88
2019-01-09T03:50:33.632Z,935.95
2019-01-09T03:51:33.624Z,935.91
2019-01-09T03:52:33.660Z,935.87
2019-01-09T03:53:33.652Z,935.96
2019-01-09T03:54:33.596Z,935.86
2019-01-09T03:55:33.588Z,935.89
2019-01-09T03:56:33.567Z,935.90
2019-01-09T03:57:33.557Z,935.96
2019-01-09T03:58:33.563Z,935.93
2019-01-09T03:59:33.542Z,935.92
2019-01-09T04:00:33.535Z,935.86
2019-01-09T04:01:33.515Z,935.86
2019-01-09T04:02:33.505Z,935.86
2019-01-09T04:03:33.518Z,935.82
2019-01-09T04:04:33.476Z,935.95
2019-01-09T04:05:33.470Z,935.95
2019-01-09T04:06:41.650Z,935.96
2019-01-09T04:07:33.457Z,935.89
2019-01-09T04:08:33.435Z,935.87
2019-01-09T04:09:33.448Z,935.92
2019-01-09T04:10:33.415Z,936.10
2019-01-09T04:11:33.402Z,935.93
2019-01-09T04:12:33.403Z,935.99
2019-01-09T04:13:33.388Z,935.84
2019-01-09T04:14:33.367Z,935.93
2019-01-09T04:15:33.364Z,935.98
2019-01-09T04:16:33.363Z,935.92
2019-01-09T04:17:33.335Z,936.15
2019-01-09T04:18:33.322Z,935.87
2019-01-09T04:19:33.331Z,935.99
2019-01-09T04:20:33.315Z,935.92
2019-01-09T04:21:33.290Z,935.85
2019-01-09T04:22:33.297Z,935.91
2019-01-09T04:23:33.260Z,935.99
2019-01-09T04:24:33.271Z,935.98
2019-01-09T04:25:33.298Z,935.94
2019-01-09T04:26:33.235Z,935.92
2019-01-09T04:27:33.233Z,936.15
2019-01-09T04:28:33.207Z,935.95
2019-01-09T04:29:33.200Z,935.88
2019-01-09T04:30:33.189Z,935.98
2019-01-09T04:31:33.239Z,935.87
2019-01-09T04:32:33.203Z,935.89
2019-01-09T04:33:33.152Z,935.98
2019-01-09T04:34:33.677Z,935.87
2019-01-09T04:35:33.131Z,935.92
2019-01-09T04:36:33.118Z,935.90
2019-01-09T04:37:33.138Z,935.91
2019-01-09T04:38:33.126Z,935.92
2019-01-09T04:39:33.077Z,935.89
2019-01-09T04:40:33.077Z,935.98
2019-01-09T04:41:33.060Z,935.86
2019-01-09T04:42:33.053Z,935.91
2019-01-09T04:43:33.081Z,935.76
2019-01-09T04:44:33.049Z,935.91
2019-01-09T04:45:33.021Z,935.82
2019-01-09T04:46:33.006Z,935.80
2019-01-09T04:47:32.996Z,935.93
2019-01-09T04:48:32.988Z,935.96
2019-01-09T04:49:33.001Z,935.82
2019-01-09T04:50:32.973Z,936.02
2019-01-09T04:51:32.959Z,935.87
2019-01-09T04:52:32.943Z,935.94
2019-01-09T04:53:32.925Z,935.88
2019-01-09T04:54:32.921Z,935.95
2019-01-09T04:55:32.912Z,936.01
2019-01-09T04:56:32.888Z,935.99
2019-01-09T04:57:32.903Z,936.00
2019-01-09T04:58:32.869Z,936.01
2019-01-09T04:59:32.969Z,935.94
2019-01-09T05:00:32.893Z,935.97
2019-01-09T05:01:32.845Z,936.08
2019-01-09T05:02:32.830Z,935.97
2019-01-09T05:03:32.846Z,936.03
2019-01-09T05:04:32.809Z,935.97
2019-01-09T05:05:32.795Z,936.02
2019-01-09T05:06:32.816Z,936.09
2019-01-09T05:07:32.779Z,935.99
2019-01-09T05:08:32.764Z,935.99
2019-01-09T05:09:32.777Z,936.06
2019-01-09T05:10:32.746Z,936.16
2019-01-09T05:11:32.723Z,936.02
2019-01-09T05:12:32.727Z,936.06
2019-01-09T05:13:32.709Z,936.15
2019-01-09T05:14:32.695Z,936.06
2019-01-09T05:15:32.704Z,936.07
2019-01-09T05:16:32.670Z,936.07
2019-01-09T05:17:32.696Z,936.11
2019-01-09T05:18:32.650Z,936.14
2019-01-09T05:19:32.636Z,936.14
2019-01-09T05:20:32.643Z,936.19
2019-01-09T05:21:32.610Z,936.23
2019-01-09T05:22:32.606Z,936.20
2019-01-09T05:23:32.628Z,936.23
2019-01-09T05:24:32.589Z,936.23
2019-01-09T05:25:32.568Z,936.32
2019-01-09T05:26:32.579Z,936.12
2019-01-09T05:27:32.556Z,936.17
2019-01-09T05:28:32.539Z,936.21
2019-01-09T05:29:32.551Z,936.23
2019-01-09T05:30:32.532Z,936.19
2019-01-09T05:31:32.515Z,936.23
2019-01-09T05:32:32.494Z,936.22
2019-01-09T05:33:32.485Z,936.37
2019-01-09T05:34:32.486Z,936.17
2019-01-09T05:35:32.502Z,936.22
2019-01-09T05:36:32.455Z,936.26
2019-01-09T05:37:32.443Z,936.24
2019-01-09T05:38:32.424Z,936.21
2019-01-09T05:39:39.697Z,936.21
2019-01-09T05:40:33.440Z,936.39
2019-01-09T05:41:32.415Z,936.35
2019-01-09T05:42:32.421Z,936.31
2019-01-09T05:43:32.376Z,936.46
2019-01-09T05:44:32.374Z,936.42
2019-01-09T05:45:32.357Z,936.37
2019-01-09T05:46:32.362Z,936.45
2019-01-09T05:47:32.390Z,936.37
2019-01-09T05:48:32.327Z,936.43
2019-01-09T05:49:32.324Z,936.47
2019-01-09T05:50:32.292Z,936.39
2019-01-09T05:51:32.280Z,936.45
2019-01-09T05:52:32.297Z,936.46
2019-01-09T05:53:32.264Z,936.46
2019-01-09T05:54:32.247Z,936.45
2019-01-09T05:55:32.263Z,936.58
2019-01-09T05:56:32.232Z,936.44
2019-01-09T05:57:32.244Z,936.53
2019-01-09T05:58:32.196Z,936.53
2019-01-09T05:59:32.196Z,936.48
2019-01-09T06:00:32.184Z,936.44
2019-01-09T06:01:32.178Z,936.48
2019-01-09T06:02:32.160Z,936.50
2019-01-09T06:03:32.180Z,936.68
2019-01-09T06:04:32.145Z,936.53
2019-01-09T06:05:32.166Z,936.51
2019-01-09T06:06:32.118Z,936.58
2019-01-09T06:07:32.106Z,936.61
2019-01-09T06:08:32.130Z,936.58
2019-01-09T06:09:32.122Z,936.62
2019-01-09T06:10:32.072Z,936.66
2019-01-09T06:11:32.065Z,936.69
2019-01-09T06:12:32.055Z,936.59
2019-01-09T06:13:32.040Z,936.60
2019-01-09T06:14:32.033Z,936.63
2019-01-09T06:15:32.016Z,936.62
2019-01-09T06:16:32.044Z,936.63
2019-01-09T06:17:31.996Z,936.59
2019-01-09T06:18:31.980Z,936.56
2019-01-09T06:19:32.001Z,936.72
2019-01-09T06:20:31.965Z,936.67
2019-01-09T06:21:31.963Z,936.62
2019-01-09T06:22:31.930Z,936.75
2019-01-09T06:23:31.946Z,936.69
2019-01-09T06:24:31.926Z,936.78
2019-01-09T06:25:31.929Z,936.74
2019-01-09T06:26:31.896Z,936.78
2019-01-09T06:27:31.876Z,936.76
2019-01-09T06:28:31.891Z,936.80
2019-01-09T06:29:31.862Z,936.79
2019-01-09T06:30:31.847Z,936.79
2019-01-09T06:31:31.874Z,936.89
2019-01-09T06:32:31.822Z,936.84
2019-01-09T06:33:31.815Z,936.80
2019-01-09T06:34:31.808Z,936.86
2019-01-09T06:35:31.803Z,936.85
2019-01-09T06:36:31.782Z,936.84
2019-01-09T06:37:31.802Z,936.83
2019-01-09T06:38:31.761Z,936.83
2019-01-09T06:39:31.740Z,936.86
2019-01-09T06:40:31.734Z,936.94
2019-01-09T06:41:31.742Z,936.93
2019-01-09T06:42:31.742Z,936.91
2019-01-09T06:43:31.717Z,936.82
2019-01-09T06:44:31.696Z,937.05
2019-01-09T06:45:31.674Z,936.99
2019-01-09T06:46:31.659Z,936.97
2019-01-09T06:47:31.787Z,937.10
2019-01-09T06:48:31.673Z,937.08
2019-01-09T06:49:31.626Z,937.09
2019-01-09T06:50:31.629Z,936.94
2019-01-09T06:51:31.671Z,937.02
2019-01-09T06:52:31.602Z,936.91
2019-01-09T06:53:31.715Z,937.02
2019-01-09T06:54:31.584Z,937.01
2019-01-09T06:55:31.566Z,937.02
2019-01-09T06:56:31.561Z,937.10
2019-01-09T06:57:40.987Z,936.99
2019-01-09T06:58:31.544Z,936.97
2019-01-09T06:59:31.774Z,937.07
2019-01-09T07:00:40.118Z,937.00
2019-01-09T07:01:40.919Z,937.10
2019-01-09T07:04:31.592Z,937.22
2019-01-09T07:05:32.488Z,937.18
2019-01-09T07:06:42.522Z,937.14
2019-01-09T07:07:43.108Z,937.04
2019-01-09T07:08:31.519Z,937.06
2019-01-09T07:09:31.460Z,937.08
2019-01-09T07:10:40.921Z,937.23
2019-01-09T07:12:57.531Z,937.23
2019-01-09T07:13:55.762Z,937.15
2019-01-09T07:14:54.752Z,937.26
2019-01-09T07:16:12.842Z,937.18
2019-01-09T07:16:54.718Z,937.20
2019-01-09T07:18:04.110Z,937.22
2019-01-09T07:19:05.866Z,937.23
2019-01-09T07:20:09.588Z,937.29
2019-01-09T07:21:03.223Z,937.40
2019-01-09T07:22:06.646Z,937.31
2019-01-09T07:23:03.190Z,937.38
2019-01-09T07:23:54.636Z,937.38
2019-01-09T07:25:03.180Z,937.36
2019-01-09T07:26:03.375Z,937.33
2019-01-09T07:26:54.614Z,937.38
2019-01-09T07:28:03.146Z,937.32
2019-01-09T07:28:54.613Z,937.32
2019-01-09T07:30:05.516Z,937.34
2019-01-09T07:31:09.367Z,937.30
2019-01-09T07:32:28.082Z,937.25
2019-01-09T07:32:54.607Z,937.37
2019-01-09T07:34:03.106Z,937.37
2019-01-09T07:35:05.587Z,937.34
2019-01-09T07:35:55.508Z,937.36
2019-01-09T07:36:54.504Z,937.31
2019-01-09T07:38:03.064Z,937.41
2019-01-09T07:40:53.428Z,937.31
2019-01-09T07:43:02.019Z,937.44
2019-01-09T07:44:02.619Z,937.54
2019-01-09T07:45:11.351Z,937.43
2019-01-09T07:46:01.916Z,937.51
2019-01-09T07:47:01.862Z,937.48
2019-01-09T07:48:01.866Z,937.41
2019-01-09T07:49:02.644Z,937.43
2019-01-09T07:50:12.208Z,937.43
2019-01-09T07:51:01.863Z,937.39
2019-01-09T07:52:32.305Z,937.46
2019-01-09T07:53:01.863Z,937.48
2019-01-09T07:55:01.592Z,937.49
2019-01-09T07:55:03.133Z,937.58
2019-01-09T07:56:02.032Z,937.42
2019-01-09T08:00:01.447Z,937.66
2019-01-09T08:06:40.833Z,937.54
2019-01-09T08:13:14.569Z,937.62
2019-01-09T08:14:15.530Z,937.71
2019-01-09T08:19:39.011Z,937.67
2019-01-09T08:20:16.308Z,937.70
2019-01-09T08:21:50.304Z,937.65
2019-01-09T08:24:22.913Z,937.68
2019-01-09T08:27:02.736Z,937.67
2019-01-09T08:29:50.371Z,937.72
2019-01-09T08:35:54.544Z,937.81
2019-01-09T08:36:32.417Z,937.78
2019-01-09T08:39:35.174Z,937.81
2019-01-09T08:41:54.944Z,937.81
2019-01-09T08:43:31.739Z,937.84
2019-01-09T08:52:55.027Z,938.01
2019-01-09T08:54:49.625Z,937.98
2019-01-09T08:54:55.019Z,937.95
2019-01-09T08:58:02.363Z,938.01
2019-01-09T08:58:57.885Z,938.00
2019-01-09T09:00:05.810Z,938.02
2019-01-09T09:03:44.254Z,938.09
2019-01-09T09:05:02.794Z,938.08
2019-01-09T09:05:56.801Z,938.16
2019-01-09T09:06:46.751Z,938.06
2019-01-09T09:07:59.727Z,938.13
2019-01-09T09:08:45.769Z,938.12
2019-01-09T09:09:44.135Z,938.08
2019-01-09T09:11:21.935Z,938.10
2019-01-09T09:12:46.758Z,938.12
2019-01-09T09:15:05.362Z,938.21
2019-01-09T09:16:08.306Z,938.07
2019-01-09T09:17:03.619Z,938.21
2019-01-09T09:19:21.540Z,938.20
2019-01-09T09:20:24.074Z,938.12
2019-01-09T09:21:29.994Z,938.23
2019-01-09T09:22:21.466Z,938.28
2019-01-09T09:25:29.265Z,938.30
2019-01-09T09:26:30.675Z,938.27
2019-01-09T09:27:33.695Z,938.22
2019-01-09T09:28:46.288Z,938.28
2019-01-09T09:29:29.008Z,938.14
2019-01-09T09:30:28.925Z,938.16
2019-01-09T09:31:28.904Z,938.13
2019-01-09T09:32:43.259Z,938.18
2019-01-09T09:33:28.870Z,938.15
2019-01-09T09:34:29.761Z,938.18
2019-01-09T09:35:49.842Z,938.31
2019-01-09T09:36:29.749Z,938.25
2019-01-09T09:37:37.246Z,938.26
2019-01-09T09:38:29.226Z,938.20
2019-01-09T09:39:49.374Z,938.20
2019-01-09T09:40:43.137Z,938.23
2019-01-09T09:41:28.802Z,938.24
2019-01-09T09:42:28.810Z,938.19
2019-01-09T09:43:44.457Z,938.18
2019-01-09T09:44:28.782Z,938.21
2019-01-09T09:45:39.604Z,938.35
2019-01-09T09:46:28.722Z,938.26
2019-01-09T09:48:42.924Z,938.24
2019-01-09T09:49:42.843Z,938.18
2019-01-09T09:50:45.665Z,938.22
2019-01-09T09:51:42.836Z,938.27
2019-01-09T09:52:43.184Z,938.21
2019-01-09T09:53:43.671Z,938.29
2019-01-09T09:54:53.750Z,938.33
2019-01-09T09:55:42.757Z,938.31
2019-01-09T09:56:44.720Z,938.31
2019-01-09T09:57:45.685Z,938.20
2019-01-09T09:58:44.725Z,938.32
2019-01-09T09:59:43.675Z,938.37
2019-01-09T10:00:43.711Z,938.29
2019-01-09T10:01:42.704Z,938.38
2019-01-09T10:02:44.295Z,938.31
2019-01-09T10:03:42.781Z,938.21
2019-01-09T10:04:42.688Z,938.31
2019-01-09T10:05:42.648Z,938.30
2019-01-09T10:06:43.193Z,938.30
2019-01-09T10:07:43.178Z,938.27
2019-01-09T10:08:43.179Z,938.28
2019-01-09T10:09:53.293Z,938.26
2019-01-09T10:10:42.611Z,938.31
2019-01-09T10:11:43.239Z,938.24
2019-01-09T10:12:42.564Z,938.24
2019-01-09T10:13:42.551Z,938.33
2019-01-09T10:14:42.588Z,938.22
2019-01-09T10:15:42.528Z,938.27
2019-01-09T10:16:43.211Z,938.27
2019-01-09T10:17:44.257Z,938.23
2019-01-09T10:18:42.625Z,938.26
2019-01-09T10:19:42.474Z,938.25
2019-01-09T10:20:42.483Z,938.26
2019-01-09T10:21:43.181Z,938.37
2019-01-09T10:22:42.458Z,938.31
2019-01-09T10:23:42.474Z,938.20
2019-01-09T10:24:43.168Z,938.24
2019-01-09T10:25:42.719Z,938.20
2019-01-09T10:26:43.177Z,938.18
2019-01-09T10:27:42.387Z,938.25
2019-01-09T10:28:42.375Z,938.19
2019-01-09T10:29:43.177Z,938.16
2019-01-09T10:30:42.736Z,938.17
2019-01-09T10:31:42.343Z,938.24
2019-01-09T10:32:42.339Z,938.40
2019-01-09T10:33:44.199Z,938.21
2019-01-09T10:34:42.312Z,938.21
2019-01-09T10:35:42.348Z,938.25
2019-01-09T10:36:42.287Z,938.25
2019-01-09T10:37:42.299Z,938.26
2019-01-09T10:38:42.270Z,938.25
2019-01-09T10:39:42.253Z,938.25
2019-01-09T10:40:45.705Z,938.29
2019-01-09T10:41:42.227Z,938.28
2019-01-09T10:42:42.225Z,938.20
2019-01-09T10:43:42.238Z,938.16
2019-01-09T10:44:42.201Z,938.32
2019-01-09T10:45:42.188Z,938.27
2019-01-09T10:46:42.203Z,938.20
2019-01-09T10:47:42.162Z,938.28
2019-01-09T10:48:42.156Z,938.33
2019-01-09T10:49:42.142Z,938.29
2019-01-09T10:50:42.154Z,938.43
2019-01-09T10:51:42.159Z,938.34
2019-01-09T10:52:42.123Z,938.33
2019-01-09T10:53:42.098Z,938.27
2019-01-09T10:54:42.103Z,938.22
2019-01-09T10:55:42.153Z,938.27
2019-01-09T10:56:42.076Z,938.30
2019-01-09T10:57:42.063Z,938.28
2019-01-09T10:58:42.168Z,938.24
2019-01-09T10:59:42.027Z,938.32
2019-01-09T11:00:42.622Z,938.27
2019-01-09T11:01:42.009Z,938.21
2019-01-09T11:02:48.761Z,938.26
2019-01-09T11:03:42.026Z,938.26
2019-01-09T11:04:41.965Z,938.34
2019-01-09T11:05:41.986Z,938.12
2019-01-09T11:06:41.978Z,938.28
2019-01-09T11:07:41.937Z,938.33
2019-01-09T11:08:46.919Z,938.26
2019-01-09T11:09:42.925Z,938.21
2019-01-09T11:10:41.908Z,938.26
2019-01-09T11:11:41.918Z,938.29
2019-01-09T11:12:41.922Z,938.29
2019-01-09T11:13:41.868Z,938.20
2019-01-09T11:14:42.904Z,938.24
2019-01-09T11:15:41.883Z,938.18
2019-01-09T11:16:41.830Z,938.16
2019-01-09T11:17:41.821Z,938.28
2019-01-09T11:18:41.835Z,938.23
2019-01-09T11:19:41.828Z,938.26
2019-01-09T11:20:41.802Z,938.23
2019-01-09T11:21:41.788Z,938.25
2019-01-09T11:22:41.755Z,938.23
2019-01-09T11:23:41.780Z,938.18
2019-01-09T11:24:41.774Z,938.20
2019-01-09T11:25:41.747Z,938.14
2019-01-09T11:26:41.738Z,938.22
2019-01-09T11:27:41.727Z,938.19
2019-01-09T11:28:41.724Z,938.19
2019-01-09T11:29:41.746Z,938.26
2019-01-09T11:30:41.685Z,938.20
2019-01-09T11:31:41.696Z,938.39
2019-01-09T11:33:09.275Z,938.30
2019-01-09T11:33:41.681Z,938.26
2019-01-09T11:34:41.661Z,938.29
2019-01-09T11:35:41.629Z,938.31
2019-01-09T11:36:41.641Z,938.25
2019-01-09T11:37:41.642Z,938.27
2019-01-09T11:38:41.622Z,938.32
2019-01-09T11:39:41.586Z,938.29
2019-01-09T11:40:41.577Z,938.29
2019-01-09T11:41:41.566Z,938.30
2019-01-09T11:42:41.543Z,938.26
2019-01-09T11:43:41.573Z,938.40
2019-01-09T11:44:41.518Z,938.30
2019-01-09T11:45:41.529Z,938.34
2019-01-09T11:46:41.542Z,938.38
2019-01-09T11:47:41.489Z,938.37
2019-01-09T11:48:41.521Z,938.29
2019-01-09T11:49:41.499Z,938.47
2019-01-09T11:50:41.500Z,938.36
2019-01-09T11:51:41.447Z,938.36
2019-01-09T11:52:41.442Z,938.28
2019-01-09T11:53:41.441Z,938.41
2019-01-09T11:54:41.634Z,938.36
2019-01-09T11:55:41.404Z,938.38
2019-01-09T11:56:41.409Z,938.42
2019-01-09T11:57:41.383Z,938.37
2019-01-09T11:58:41.389Z,938.35
2019-01-09T11:59:41.347Z,938.37
2019-01-09T12:00:42.773Z,938.41
2019-01-09T12:01:41.356Z,938.46
2019-01-09T12:02:41.330Z,938.40
2019-01-09T12:03:41.369Z,938.35
2019-01-09T12:04:41.318Z,938.38
2019-01-09T12:05:41.322Z,938.47
2019-01-09T12:06:42.276Z,938.39
2019-01-09T12:07:41.256Z,938.46
2019-01-09T12:08:41.249Z,938.44
2019-01-09T12:09:41.274Z,938.44
2019-01-09T12:10:41.264Z,938.44
2019-01-09T12:11:41.271Z,938.43
2019-01-09T12:12:41.208Z,938.44
2019-01-09T12:13:41.231Z,938.46
2019-01-09T12:14:41.179Z,938.53
2019-01-09T12:15:41.207Z,938.42
2019-01-09T12:16:41.193Z,938.46
2019-01-09T12:17:41.149Z,938.49
2019-01-09T12:18:41.155Z,938.41
2019-01-09T12:19:41.122Z,938.41
2019-01-09T12:20:41.146Z,938.46
2019-01-09T12:21:41.099Z,938.41
2019-01-09T12:22:41.136Z,938.48
2019-01-09T12:23:41.077Z,938.47
2019-01-09T12:24:41.067Z,938.52
2019-01-09T12:25:41.117Z,938.58
2019-01-09T12:26:41.052Z,938.52
2019-01-09T12:27:41.031Z,938.52
2019-01-09T12:28:41.026Z,938.59
2019-01-09T12:29:41.031Z,938.51
2019-01-09T12:30:41.022Z,938.59
2019-01-09T12:31:40.987Z,938.58
2019-01-09T12:32:55.733Z,938.60
2019-01-09T12:33:40.976Z,938.56
2019-01-09T12:34:40.954Z,938.59
2019-01-09T12:35:40.990Z,938.47
2019-01-09T12:36:40.935Z,938.66
2019-01-09T12:37:40.918Z,938.61
2019-01-09T12:38:42.193Z,938.68
2019-01-09T12:39:40.913Z,938.67
2019-01-09T12:40:40.898Z,938.61
2019-01-09T12:41:40.929Z,938.70
2019-01-09T12:42:40.887Z,938.74
2019-01-09T12:43:40.856Z,938.75
2019-01-09T12:44:40.851Z,938.74
2019-01-09T12:45:40.842Z,938.79
2019-01-09T12:46:40.866Z,938.90
2019-01-09T12:47:40.836Z,938.75
2019-01-09T12:48:40.790Z,938.71
2019-01-09T12:49:40.783Z,938.85
2019-01-09T12:50:40.781Z,938.92
2019-01-09T12:51:40.801Z,938.87
2019-01-09T12:52:40.757Z,938.78
2019-01-09T12:53:40.745Z,938.82
2019-01-09T12:54:40.747Z,938.74
2019-01-09T12:55:40.720Z,938.84
2019-01-09T12:56:40.727Z,938.86
2019-01-09T12:57:40.718Z,938.89
2019-01-09T12:58:40.718Z,938.88
2019-01-09T12:59:40.688Z,939.11
2019-01-09T13:00:40.665Z,938.88
2019-01-09T13:01:40.683Z,938.98
2019-01-09T13:02:40.663Z,938.94
2019-01-09T13:03:40.646Z,939.05
2019-01-09T13:04:40.622Z,939.05
2019-01-09T13:05:40.614Z,939.04
2019-01-09T13:06:40.594Z,939.00
2019-01-09T13:07:40.627Z,939.09
2019-01-09T13:08:40.598Z,939.05
2019-01-09T13:09:40.559Z,939.01
2019-01-09T13:10:40.549Z,939.06
2019-01-09T13:11:40.548Z,939.15
2019-01-09T13:12:40.528Z,939.04
2019-01-09T13:13:40.570Z,939.05
2019-01-09T13:14:40.503Z,939.13
2019-01-09T13:15:40.491Z,939.06
2019-01-09T13:16:47.679Z,939.09
2019-01-09T13:17:41.470Z,939.20
2019-01-09T13:18:40.485Z,939.13
2019-01-09T13:19:40.489Z,939.06
2019-01-09T13:20:40.480Z,939.08
2019-01-09T13:21:40.426Z,939.13
2019-01-09T13:22:40.419Z,939.13
2019-01-09T13:23:40.409Z,939.10
2019-01-09T13:24:40.392Z,939.10
2019-01-09T13:25:40.444Z,939.12
2019-01-09T13:26:40.372Z,939.22
2019-01-09T13:27:40.363Z,939.11